Time;durP1;ratioP1;P1;durP2;ratioP2;P2;SDS_P1;SDS_P2;PMS_P1;PMS_P2;Temp;Humidity;BMP_temperature;BMP_pressure;BME280_temperature;BME280_humidity;BME280_pressure;Samples;Min_cycle;Max_cycle;Signal;HPM_P1;HPM_P2
2022/01/29 08:03:21;;;;;;;5.90;4.43;;;;;;;;;;10482637;28;20032;-90
2022/01/29 08:08:22;;;;;;;6.50;5.20;;;;;;;;;;10483760;28;20040;-80
2022/01/29 08:13:23;;;;;;;;;;;;;;;;;;10569619;28;20533;-80
2022/01/29 08:18:24;;;;;;;7.57;5.82;;;;;;;;;;10549431;28;19918;-80
2022/01/29 08:23:25;;;;;;;9.63;8.20;;;;;;;;;;10556092;28;20032;-82
2022/01/29 08:33:49;;;;;;;12.63;10.18;;;;;;;;;;10538429;28;19904;-82
2022/01/29 08:44:51;;;;;;;13.85;11.02;;;;;;;;;;10452148;28;20032;-83
2022/01/29 08:50:13;;;;;;;10.20;8.85;;;;;;;;;;10518224;28;20036;-83
2022/01/29 08:55:14;;;;;;;9.77;8.02;;;;;;;;;;10516596;28;20060;-82
2022/01/29 09:00:42;;;;;;;8.52;7.55;;;;;;;;;;10539071;28;20036;-82
2022/01/29 09:11:20;;;;;;;9.15;7.13;;;;;;;;;;10456875;28;20039;-82
2022/01/29 09:16:21;;;;;;;9.70;8.70;;;;;;;;;;10441318;28;20037;-82
2022/01/29 09:21:22;;;;;;;11.43;10.23;;;;;;;;;;10530184;22;20053;-80
2022/01/29 09:26:23;;;;;;;8.80;7.90;;;;;;;;;;10498536;28;20041;-80
2022/01/29 09:31:24;;;;;;;7.82;7.03;;;;;;;;;;10495397;28;20075;-80
2022/01/29 09:36:25;;;;;;;7.38;5.57;;;;;;;;;;10493244;28;20036;-79
2022/01/29 09:41:27;;;;;;;7.05;6.35;;;;;;;;;;10493038;28;20099;-80
2022/01/29 09:46:30;;;;;;;10.27;8.50;;;;;;;;;;10492259;28;20040;-80
2022/01/29 09:51:31;;;;;;;12.43;11.07;;;;;;;;;;10511135;28;20037;-80
2022/01/29 09:56:33;;;;;;;9.25;8.23;;;;;;;;;;10492096;28;20089;-78
2022/01/29 10:01:34;;;;;;;9.55;7.85;;;;;;;;;;10491349;28;20029;-79
2022/01/29 10:06:36;;;;;;;7.93;7.13;;;;;;;;;;10497875;28;20048;-80
2022/01/29 10:11:37;;;;;;;6.55;5.45;;;;;;;;;;10491166;28;20032;-80
2022/01/29 10:16:38;;;;;;;;;;;;;;;;;;10492351;28;20037;-80
2022/01/29 10:21:46;;;;;;;9.27;8.38;;;;;;;;;;10491281;28;20192;-79
2022/01/29 10:26:49;;;;;;;10.48;8.60;;;;;;;;;;10491267;28;20119;-79
2022/01/29 10:31:54;;;;;;;8.40;7.25;;;;;;;;;;10489065;28;20036;-79
2022/01/29 10:37:14;;;;;;;9.13;8.23;;;;;;;;;;10520233;28;20062;-78
2022/01/29 10:42:15;;;;;;;7.68;6.88;;;;;;;;;;10511972;28;20059;-80
2022/01/29 10:47:16;;;;;;;;;;;;;;;;;;10512330;28;20041;-78
2022/01/29 10:52:17;;;;;;;5.63;5.05;;;;;;;;;;10508394;28;20059;-78
2022/01/29 10:57:19;;;;;;;9.73;7.57;;;;;;;;;;10501678;28;20032;-79
2022/01/29 11:02:22;;;;;;;5.80;5.22;;;;;;;;;;10516786;28;20028;-79
2022/01/29 11:07:28;;;;;;;7.05;5.55;;;;;;;;;;10493370;28;20037;-80
2022/01/29 11:12:30;;;;;;;8.15;6.78;;;;;;;;;;10492771;28;20186;-81
2022/01/29 11:17:32;;;;;;;8.40;7.03;;;;;;;;;;10492159;28;20086;-80
2022/01/29 11:22:38;;;;;;;8.25;6.07;;;;;;;;;;10495230;28;20064;-80
2022/01/29 11:27:41;;;;;;;10.98;9.88;;;;;;;;;;10541988;28;20052;-80
2022/01/29 11:33:08;;;;;;;9.43;8.25;;;;;;;;;;10515585;28;20037;-80
2022/01/29 11:38:11;;;;;;;10.25;9.25;;;;;;;;;;10492682;28;20041;-80
2022/01/29 11:43:15;;;;;;;7.85;6.97;;;;;;;;;;10498264;28;20056;-80
2022/01/29 11:48:25;;;;;;;7.13;6.40;;;;;;;;;;10500249;28;20037;-81
2022/01/29 11:53:48;;;;;;;6.30;5.70;;;;;;;;;;10518309;28;20040;-81
2022/01/29 11:58:49;;;;;;;6.25;5.53;;;;;;;;;;10499596;28;20109;-84
2022/01/29 12:04:34;;;;;;;7.53;6.57;;;;;;;;;;10499543;28;20085;-88
2022/01/29 12:09:54;;;;;;;6.95;6.22;;;;;;;;;;10498874;28;20383;-83
2022/01/29 12:14:56;;;;;;;7.15;6.45;;;;;;;;;;10500283;28;20033;-83
2022/01/29 12:19:59;;;;;;;9.02;4.53;;;;;;;;;;10498887;28;20115;-83
2022/01/29 12:25:02;;;;;;;5.13;4.22;;;;;;;;;;10499111;28;20028;-83
2022/01/29 12:30:03;;;;;;;6.32;5.72;;;;;;;;;;10497308;28;20032;-83
2022/01/29 12:35:05;;;;;;;4.20;3.80;;;;;;;;;;10495886;28;20040;-83
2022/01/29 12:40:19;;;;;;;5.60;4.95;;;;;;;;;;10501226;28;20491;-83
2022/01/29 12:45:21;;;;;;;5.68;4.40;;;;;;;;;;10498507;28;20132;-84
2022/01/29 12:50:22;;;;;;;3.63;2.10;;;;;;;;;;10494595;28;20044;-86
2022/01/29 12:55:24;;;;;;;;;;;;;;;;;;10521599;28;20020;-86
2022/01/29 13:00:45;;;;;;;5.55;4.38;;;;;;;;;;10539392;28;19998;-85
2022/01/29 13:05:46;;;;;;;;;;;;;;;;;;10506136;28;20131;-85
2022/01/29 13:10:47;;;;;;;5.70;4.72;;;;;;;;;;10505652;28;20022;-85
2022/01/29 13:15:48;;;;;;;5.45;4.80;;;;;;;;;;10511358;28;20044;-86
2022/01/29 13:20:49;;;;;;;4.65;4.13;;;;;;;;;;10504906;28;20082;-86
2022/01/29 13:25:50;;;;;;;5.28;4.25;;;;;;;;;;10500164;28;20039;-86
2022/01/29 13:31:01;;;;;;;6.40;4.45;;;;;;;;;;10499550;28;20094;-85
2022/01/29 13:36:02;;;;;;;4.30;3.70;;;;;;;;;;10528767;28;20055;-86
2022/01/29 13:41:03;;;;;;;4.20;3.80;;;;;;;;;;10516476;28;20263;-85
2022/01/29 13:46:06;;;;;;;3.42;3.13;;;;;;;;;;10518072;28;20040;-85
2022/01/29 13:51:07;;;;;;;4.38;3.40;;;;;;;;;;10516455;28;20059;-85
2022/01/29 13:56:08;;;;;;;;;;;;;;;;;;10517766;28;20036;-85
2022/01/29 14:01:09;;;;;;;3.10;2.50;;;;;;;;;;10518057;28;19983;-86
2022/01/29 14:06:10;;;;;;;;;;;;;;;;;;10519404;28;20036;-86
2022/01/29 14:11:15;;;;;;;3.28;2.80;;;;;;;;;;10521254;28;19912;-85
2022/01/29 14:16:16;;;;;;;4.22;3.38;;;;;;;;;;10520390;28;20058;-85
2022/01/29 14:21:17;;;;;;;5.43;3.45;;;;;;;;;;10517481;28;20060;-85
2022/01/29 14:26:18;;;;;;;4.03;2.90;;;;;;;;;;10545737;28;20039;-85
2022/01/29 14:31:19;;;;;;;3.92;3.00;;;;;;;;;;10528183;28;20021;-86
2022/01/29 14:36:21;;;;;;;5.05;3.25;;;;;;;;;;10527340;28;20051;-86
2022/01/29 14:41:24;;;;;;;;;;;;;;;;;;10526513;28;20020;-84
2022/01/29 14:46:25;;;;;;;4.70;3.47;;;;;;;;;;10526436;28;19905;-85
2022/01/29 14:51:28;;;;;;;4.70;3.25;;;;;;;;;;10524390;28;20048;-85
2022/01/29 14:56:29;;;;;;;4.28;3.05;;;;;;;;;;10508403;28;20044;-86
2022/01/29 15:01:30;;;;;;;;;;;;;;;;;;10510420;28;20121;-85
2022/01/29 15:06:31;;;;;;;3.50;3.03;;;;;;;;;;10510395;28;19932;-86
2022/01/29 15:11:33;;;;;;;3.85;2.75;;;;;;;;;;10513970;28;20040;-85
2022/01/29 15:16:34;;;;;;;3.83;3.17;;;;;;;;;;10511566;28;20056;-86
2022/01/29 15:21:37;;;;;;;6.00;4.28;;;;;;;;;;10503699;28;20036;-86
2022/01/29 15:26:38;;;;;;;4.53;3.10;;;;;;;;;;10500716;28;20064;-86
2022/01/29 15:31:41;;;;;;;4.22;3.75;;;;;;;;;;10499534;28;20042;-85
2022/01/29 15:36:42;;;;;;;6.85;3.45;;;;;;;;;;10494783;28;20028;-86
2022/01/29 15:41:43;;;;;;;5.15;2.95;;;;;;;;;;10513839;28;20044;-87
2022/01/29 15:46:44;;;;;;;3.42;2.97;;;;;;;;;;10504370;28;20475;-86
2022/01/29 15:51:45;;;;;;;5.47;4.38;;;;;;;;;;10496642;28;20060;-86
2022/01/29 15:56:46;;;;;;;4.43;3.53;;;;;;;;;;10494401;28;20064;-86
2022/01/29 16:01:52;;;;;;;4.03;2.97;;;;;;;;;;10497894;28;20168;-87
2022/01/29 16:06:52;;;;;;;4.47;3.25;;;;;;;;;;10490833;28;20058;-87
2022/01/29 16:11:54;;;;;;;4.95;3.65;;;;;;;;;;10501900;28;20040;-86
2022/01/29 16:16:56;;;;;;;3.88;2.88;;;;;;;;;;10505509;28;20048;-86
2022/01/29 16:21:57;;;;;;;4.03;3.33;;;;;;;;;;10504775;28;20098;-85
2022/01/29 16:26:58;;;;;;;5.50;3.20;;;;;;;;;;10504250;28;20121;-85
2022/01/29 16:31:59;;;;;;;;;;;;;;;;;;10506464;28;20032;-84
2022/01/29 16:37:00;;;;;;;5.25;3.33;;;;;;;;;;10504494;28;19916;-85
2022/01/29 16:42:01;;;;;;;4.22;2.92;;;;;;;;;;10504623;28;20031;-85
2022/01/29 16:47:03;;;;;;;3.15;2.40;;;;;;;;;;10508943;28;20037;-86
2022/01/29 16:52:05;;;;;;;3.40;2.70;;;;;;;;;;10504977;28;20105;-85
2022/01/29 16:57:06;;;;;;;3.72;2.22;;;;;;;;;;10503832;28;20060;-86
2022/01/29 17:02:10;;;;;;;3.72;2.30;;;;;;;;;;10499949;28;20032;-86
2022/01/29 17:07:12;;;;;;;4.88;2.45;;;;;;;;;;10503081;28;20028;-86
2022/01/29 17:12:13;;;;;;;2.85;2.00;;;;;;;;;;10507077;28;20039;-86
2022/01/29 17:17:14;;;;;;;4.03;2.85;;;;;;;;;;10501372;28;20044;-87
2022/01/29 17:22:15;;;;;;;;;;;;;;;;;;10499685;28;20040;-87
2022/01/29 17:27:16;;;;;;;2.75;1.75;;;;;;;;;;10499204;28;19939;-86
2022/01/29 17:32:19;;;;;;;4.22;1.70;;;;;;;;;;10498483;28;20043;-86
2022/01/29 17:37:20;;;;;;;4.78;1.52;;;;;;;;;;10514498;28;20032;-86
2022/01/29 17:42:22;;;;;;;4.05;1.80;;;;;;;;;;10521467;28;20029;-86
2022/01/29 17:47:23;;;;;;;3.75;1.52;;;;;;;;;;10519556;28;20080;-86
2022/01/29 17:52:24;;;;;;;6.53;1.40;;;;;;;;;;10519463;28;20135;-85
2022/01/29 17:57:25;;;;;;;4.90;1.40;;;;;;;;;;10505169;28;20043;-85
2022/01/29 18:02:26;;;;;;;4.57;1.45;;;;;;;;;;10503684;28;20037;-86
2022/01/29 18:07:27;;;;;;;4.97;1.73;;;;;;;;;;10501800;28;20032;-85
2022/01/29 18:12:28;;;;;;;5.95;2.00;;;;;;;;;;10501769;28;20440;-86
2022/01/29 18:17:29;;;;;;;6.78;1.95;;;;;;;;;;10499618;28;20064;-85
2022/01/29 18:22:30;;;;;;;8.52;2.10;;;;;;;;;;10502549;28;20043;-86
2022/01/29 18:27:32;;;;;;;10.70;1.98;;;;;;;;;;10499844;28;20047;-86
2022/01/29 18:32:34;;;;;;;8.50;2.05;;;;;;;;;;10498100;28;20059;-86
2022/01/29 18:37:35;;;;;;;8.88;2.08;;;;;;;;;;10493802;28;20036;-86
2022/01/29 18:42:37;;;;;;;8.38;2.15;;;;;;;;;;10497525;28;20033;-87
2022/01/29 18:47:38;;;;;;;13.95;2.60;;;;;;;;;;10494488;28;20222;-86
2022/01/29 18:52:39;;;;;;;26.52;16.33;;;;;;;;;;10493531;28;20033;-86
2022/01/29 18:57:40;;;;;;;20.67;9.52;;;;;;;;;;10495836;28;20032;-87
2022/01/29 19:02:41;;;;;;;8.02;2.42;;;;;;;;;;10494728;28;20047;-86
2022/01/29 19:07:43;;;;;;;8.75;2.17;;;;;;;;;;10494508;28;20398;-85
2022/01/29 19:12:45;;;;;;;8.13;2.20;;;;;;;;;;10490866;28;20036;-85
2022/01/29 19:17:51;;;;;;;9.20;2.22;;;;;;;;;;10492372;28;20032;-86
2022/01/29 19:22:53;;;;;;;7.82;1.73;;;;;;;;;;10490150;28;20040;-86
2022/01/29 19:27:54;;;;;;;6.90;2.25;;;;;;;;;;10491533;28;20055;-86
2022/01/29 19:32:55;;;;;;;8.57;2.38;;;;;;;;;;10495804;28;20475;-85
2022/01/29 19:37:58;;;;;;;8.27;2.58;;;;;;;;;;10495625;28;20039;-85
2022/01/29 19:42:59;;;;;;;7.38;1.90;;;;;;;;;;10492650;28;20029;-86
2022/01/29 19:48:00;;;;;;;9.20;2.60;;;;;;;;;;10499920;28;20024;-86
2022/01/29 19:53:01;;;;;;;;;;;;;;;;;;10509239;28;20041;-86
2022/01/29 19:58:02;;;;;;;10.38;2.50;;;;;;;;;;10524660;28;20359;-85
2022/01/29 20:03:03;;;;;;;11.02;2.97;;;;;;;;;;10508581;28;20108;-85
2022/01/29 20:08:09;;;;;;;8.43;2.88;;;;;;;;;;10511237;28;20060;-85
2022/01/29 20:13:10;;;;;;;10.82;2.60;;;;;;;;;;10505831;28;20033;-86
2022/01/29 20:18:11;;;;;;;;;;;;;;;;;;10502701;28;20052;-85
2022/01/29 20:23:12;;;;;;;10.20;2.55;;;;;;;;;;10501461;28;20312;-86
2022/01/29 20:28:14;;;;;;;;;;;;;;;;;;10502249;28;20494;-86
2022/01/29 20:33:16;;;;;;;6.78;2.22;;;;;;;;;;10498980;28;19904;-86
2022/01/29 20:38:17;;;;;;;9.68;2.35;;;;;;;;;;10496062;28;20043;-85
2022/01/29 20:43:19;;;;;;;7.40;2.40;;;;;;;;;;10498543;28;20047;-85
2022/01/29 20:48:20;;;;;;;12.70;3.00;;;;;;;;;;10501918;28;20047;-86
2022/01/29 20:53:22;;;;;;;9.52;2.47;;;;;;;;;;10500661;28;20112;-86
2022/01/29 20:58:23;;;;;;;8.27;2.80;;;;;;;;;;10498676;28;20062;-86
2022/01/29 21:03:24;;;;;;;12.48;2.80;;;;;;;;;;10497756;28;20033;-85
2022/01/29 21:08:25;;;;;;;8.80;2.88;;;;;;;;;;10497741;28;20043;-86
2022/01/29 21:13:29;;;;;;;10.82;3.30;;;;;;;;;;10499006;28;20033;-86
2022/01/29 21:18:30;;;;;;;11.48;2.95;;;;;;;;;;10499528;28;20119;-85
2022/01/29 21:23:31;;;;;;;15.90;3.00;;;;;;;;;;10497830;28;20074;-86
2022/01/29 21:28:32;;;;;;;11.45;3.38;;;;;;;;;;10498582;28;20075;-85
2022/01/29 21:33:33;;;;;;;11.90;3.03;;;;;;;;;;10502406;28;20112;-87
2022/01/29 21:38:34;;;;;;;7.90;2.75;;;;;;;;;;10503420;28;20040;-85
2022/01/29 21:43:35;;;;;;;12.68;2.80;;;;;;;;;;10503448;28;20399;-86
2022/01/29 21:48:36;;;;;;;9.63;2.60;;;;;;;;;;10499275;28;20132;-85
2022/01/29 21:53:37;;;;;;;9.55;2.72;;;;;;;;;;10498381;28;20071;-86
2022/01/29 21:58:38;;;;;;;10.23;2.95;;;;;;;;;;10500817;28;20032;-86
2022/01/29 22:03:39;;;;;;;8.18;2.72;;;;;;;;;;10528921;28;20055;-85
2022/01/29 22:08:41;;;;;;;5.75;2.00;;;;;;;;;;10501040;28;20052;-86
2022/01/29 22:13:43;;;;;;;8.52;2.92;;;;;;;;;;10510556;28;20055;-86
2022/01/29 22:18:44;;;;;;;10.10;2.67;;;;;;;;;;10522800;28;20052;-86
2022/01/29 22:23:45;;;;;;;11.82;2.60;;;;;;;;;;10519605;28;20029;-86
2022/01/29 22:28:46;;;;;;;13.20;2.92;;;;;;;;;;10521927;28;20052;-85
2022/01/29 22:33:48;;;;;;;;;;;;;;;;;;10511268;28;20036;-85
2022/01/29 22:38:51;;;;;;;12.73;2.88;;;;;;;;;;10502430;28;19915;-85
2022/01/29 22:43:53;;;;;;;5.78;1.83;;;;;;;;;;10497777;28;20037;-86
2022/01/29 22:48:54;;;;;;;8.13;2.53;;;;;;;;;;10495376;28;20203;-86
2022/01/29 22:54:02;;;;;;;9.00;2.60;;;;;;;;;;10494313;28;20509;-86
2022/01/29 22:59:03;;;;;;;9.07;2.60;;;;;;;;;;10480869;28;20124;-87
2022/01/29 23:04:06;;;;;;;8.95;2.38;;;;;;;;;;10495323;28;20040;-86
2022/01/29 23:09:08;;;;;;;7.43;2.05;;;;;;;;;;10498587;28;20036;-85
2022/01/29 23:14:14;;;;;;;8.27;1.83;;;;;;;;;;10499146;28;20040;-85
2022/01/29 23:19:22;;;;;;;9.02;2.50;;;;;;;;;;10498100;28;20048;-85
2022/01/29 23:24:23;;;;;;;7.25;2.47;;;;;;;;;;10501641;28;20029;-87
2022/01/29 23:34:31;;;;;;;7.05;1.88;;;;;;;;;;10520107;28;20042;-86
2022/01/29 23:39:38;;;;;;;9.90;2.47;;;;;;;;;;10503812;28;20083;-86
2022/01/29 23:45:08;;;;;;;9.82;2.70;;;;;;;;;;10502740;28;20091;-85
2022/01/29 23:50:00;;;;;;;9.10;2.08;;;;;;;;;;10520313;28;20482;-84
2022/01/29 23:55:01;;;;;;;8.05;2.00;;;;;;;;;;10499775;28;20020;-86
